Time,TemperatureF,DewpointF,PressureIn,WindDirection,WindDirectionDegrees,WindSpeedMPH,WindSpeedGustMPH,Humidity,HourlyPrecipIn,Conditions,Clouds,dailyrainin,SoftwareType,DateUTC
2013-01-18 00:02:00,34.0,12.0,-100.00,WNW,296,10.0,12.0,40,0.00,,,-99.99,,2013-01-18 00:02:00,
2013-01-18 00:12:00,33.0,13.0,-100.00,WNW,295,12.0,15.0,42,0.00,,,-99.99,,2013-01-18 00:12:00,
2013-01-18 00:23:00,31.0,12.0,-100.00,WNW,291,12.0,13.0,46,0.00,,,-99.99,,2013-01-18 00:23:00,
2013-01-18 00:32:00,30.0,12.0,-100.00,WNW,294,12.0,15.0,46,0.00,,,-99.99,,2013-01-18 00:32:00,
2013-01-18 00:42:00,29.0,12.0,-100.00,WNW,292,14.0,16.0,48,0.00,,,-99.99,,2013-01-18 00:42:00,
2013-01-18 00:52:00,29.0,12.0,-100.00,WNW,299,13.0,15.0,48,0.00,,,-99.99,,2013-01-18 00:52:00,
2013-01-18 01:03:00,29.0,12.0,-100.00,NW,304,14.0,16.0,49,0.00,,,-99.99,,2013-01-18 01:03:00,
2013-01-18 01:12:00,29.0,11.0,-100.00,NW,306,14.0,16.0,48,0.00,,,-99.99,,2013-01-18 01:12:00,
2013-01-18 01:22:00,28.0,12.0,-100.00,NW,306,12.0,14.0,50,0.00,,,-99.99,,2013-01-18 01:22:00,
2013-01-18 01:33:00,27.0,11.0,-100.00,NW,311,13.0,15.0,51,0.00,,,-99.99,,2013-01-18 01:33:00,
2013-01-18 01:42:00,27.0,11.0,-100.00,NW,311,12.0,14.0,51,0.00,,,-99.99,,2013-01-18 01:42:00,
2013-01-18 01:52:00,26.0,11.0,-100.00,NW,309,12.0,13.0,53,0.00,,,-99.99,,2013-01-18 01:52:00,
2013-01-18 02:02:00,25.0,11.0,-100.00,NW,312,12.0,14.0,55,0.00,,,-99.99,,2013-01-18 02:02:00,
2013-01-18 02:12:00,25.0,11.0,-100.00,NW,309,13.0,14.0,55,0.00,,,-99.99,,2013-01-18 02:12:00,
2013-01-18 02:22:00,25.0,11.0,-100.00,NW,309,12.0,14.0,56,0.00,,,-99.99,,2013-01-18 02:22:00,
2013-01-18 02:32:00,25.0,11.0,-100.00,NW,305,14.0,16.0,55,0.00,,,-99.99,,2013-01-18 02:32:00,
2013-01-18 02:42:00,25.0,11.0,-100.00,WNW,296,14.0,15.0,55,0.00,,,-99.99,,2013-01-18 02:42:00,
2013-01-18 02:52:00,25.0,11.0,-100.00,WNW,298,14.0,16.0,54,0.00,,,-99.99,,2013-01-18 02:52:00,
2013-01-18 03:02:00,26.0,11.0,-100.00,WNW,299,13.0,16.0,53,0.00,,,-99.99,,2013-01-18 03:02:00,
2013-01-18 03:12:00,25.0,11.0,-100.00,NW,308,13.0,14.0,54,0.00,,,-99.99,,2013-01-18 03:12:00,
2013-01-18 03:22:00,24.0,10.0,-100.00,NW,304,13.0,15.0,54,0.00,,,-99.99,,2013-01-18 03:22:00,
2013-01-18 03:33:00,25.0,10.0,-100.00,WNW,302,16.0,17.0,51,0.00,,,-99.99,,2013-01-18 03:33:00,
2013-01-18 03:42:00,26.0,9.0,-100.00,NW,308,14.0,17.0,50,0.00,,,-99.99,,2013-01-18 03:42:00,
2013-01-18 03:52:00,26.0,9.0,-100.00,NW,304,14.0,16.0,49,0.00,,,-99.99,,2013-01-18 03:52:00,
2013-01-18 04:02:00,25.0,9.0,-100.00,NW,304,14.0,16.0,50,0.00,,,-99.99,,2013-01-18 04:02:00,
2013-01-18 04:12:00,24.0,9.0,-100.00,WNW,301,14.0,17.0,51,0.00,,,-99.99,,2013-01-18 04:12:00,
2013-01-18 04:22:00,27.0,9.0,-100.00,NW,306,19.0,22.0,46,0.00,,,-99.99,,2013-01-18 04:22:00,
2013-01-18 04:32:00,26.0,9.0,-100.00,NW,305,18.0,21.0,46,0.00,,,-99.99,,2013-01-18 04:32:00,
2013-01-18 04:42:00,27.0,8.0,-100.00,NW,306,21.0,22.0,45,0.00,,,-99.99,,2013-01-18 04:42:00,
2013-01-18 04:52:00,27.0,8.0,-100.00,NW,306,22.0,24.0,42,0.00,,,-99.99,,2013-01-18 04:52:00,
2013-01-18 05:03:00,28.0,7.0,-100.00,NW,309,23.0,26.0,41,0.00,,,-99.99,,2013-01-18 05:03:00,
2013-01-18 05:12:00,27.0,7.0,-100.00,NW,309,24.0,26.0,41,0.00,,,-99.99,,2013-01-18 05:12:00,
2013-01-18 05:22:00,28.0,6.0,-100.00,NW,311,23.0,26.0,40,0.00,,,-99.99,,2013-01-18 05:22:00,
2013-01-18 05:33:00,28.0,6.0,-100.00,NW,309,24.0,27.0,38,0.00,,,-99.99,,2013-01-18 05:33:00,
2013-01-18 05:42:00,28.0,6.0,-100.00,NW,306,24.0,26.0,38,0.00,,,-99.99,,2013-01-18 05:42:00,
2013-01-18 05:52:00,29.0,6.0,-100.00,NW,306,25.0,27.0,37,0.00,,,-99.99,,2013-01-18 05:52:00,
2013-01-18 06:02:00,28.0,6.0,-100.00,NW,305,24.0,27.0,38,0.00,,,-99.99,,2013-01-18 06:02:00,
2013-01-18 06:12:00,28.0,6.0,-100.00,NW,305,23.0,27.0,38,0.00,,,-99.99,,2013-01-18 06:12:00,
2013-01-18 06:22:00,27.0,6.0,-100.00,WNW,299,22.0,25.0,39,0.00,,,-99.99,,2013-01-18 06:22:00,
2013-01-18 06:32:00,28.0,6.0,-100.00,WNW,298,22.0,26.0,38,0.00,,,-99.99,,2013-01-18 06:32:00,
2013-01-18 06:43:00,28.0,5.0,-100.00,WNW,296,23.0,27.0,37,0.00,,,-99.99,,2013-01-18 06:43:00,
2013-01-18 06:52:00,28.0,5.0,-100.00,WNW,296,24.0,28.0,38,0.00,,,-99.99,,2013-01-18 06:52:00,
2013-01-18 07:02:00,28.0,5.0,-100.00,WNW,299,23.0,29.0,38,0.00,,,-99.99,,2013-01-18 07:02:00,
2013-01-18 07:12:00,28.0,5.0,-100.00,WNW,299,22.0,26.0,37,0.00,,,-99.99,,2013-01-18 07:12:00,
2013-01-18 07:22:00,29.0,5.0,-100.00,WNW,298,24.0,27.0,36,0.00,,,-99.99,,2013-01-18 07:22:00,
2013-01-18 07:32:00,28.0,5.0,-100.00,WNW,298,26.0,29.0,38,0.00,,,-99.99,,2013-01-18 07:32:00,
2013-01-18 07:42:00,28.0,5.0,-100.00,WNW,296,25.0,28.0,37,0.00,,,-99.99,,2013-01-18 07:42:00,
2013-01-18 07:52:00,28.0,5.0,-100.00,WNW,296,23.0,28.0,36,0.00,,,-99.99,,2013-01-18 07:52:00,
2013-01-18 08:02:00,28.0,5.0,-100.00,WNW,295,23.0,27.0,37,0.00,,,-99.99,,2013-01-18 08:02:00,
2013-01-18 08:12:00,28.0,4.0,-100.00,WNW,296,26.0,32.0,35,0.00,,,-99.99,,2013-01-18 08:12:00,
2013-01-18 08:22:00,29.0,4.0,-100.00,WNW,299,29.0,34.0,35,0.00,,,-99.99,,2013-01-18 08:22:00,
2013-01-18 08:32:00,28.0,4.0,-100.00,WNW,296,29.0,34.0,35,0.00,,,-99.99,,2013-01-18 08:32:00,
2013-01-18 08:42:00,29.0,4.0,-100.00,WNW,294,29.0,34.0,34,0.00,,,-99.99,,2013-01-18 08:42:00,
2013-01-18 08:52:00,29.0,4.0,-100.00,WNW,291,25.0,30.0,34,0.00,,,-99.99,,2013-01-18 08:52:00,
2013-01-18 09:02:00,29.0,4.0,-100.00,WNW,299,27.0,30.0,34,0.00,,,-99.99,,2013-01-18 09:02:00,
2013-01-18 09:12:00,29.0,4.0,-100.00,WNW,301,22.0,29.0,34,0.00,,,-99.99,,2013-01-18 09:12:00,
2013-01-18 09:22:00,29.0,4.0,-100.00,WNW,302,24.0,32.0,34,0.00,,,-99.99,,2013-01-18 09:22:00,
2013-01-18 09:33:00,29.0,4.0,-100.00,WNW,302,26.0,32.0,33,0.00,,,-99.99,,2013-01-18 09:33:00,
2013-01-18 09:42:00,30.0,3.0,-100.00,NW,306,29.0,32.0,31,0.00,,,-99.99,,2013-01-18 09:42:00,
2013-01-18 09:52:00,30.0,3.0,-100.00,NW,308,27.0,34.0,32,0.00,,,-99.99,,2013-01-18 09:52:00,
2013-01-18 10:02:00,30.0,4.0,-100.00,NW,306,30.0,36.0,32,0.00,,,-99.99,,2013-01-18 10:02:00,
2013-01-18 10:12:00,30.0,3.0,-100.00,NW,309,26.0,32.0,32,0.00,,,-99.99,,2013-01-18 10:12:00,
2013-01-18 10:22:00,29.0,4.0,-100.00,NW,308,22.0,28.0,33,0.00,,,-99.99,,2013-01-18 10:22:00,
2013-01-18 10:32:00,31.0,4.0,-100.00,NW,313,27.0,32.0,31,0.00,,,-99.99,,2013-01-18 10:32:00,
2013-01-18 10:42:00,30.0,3.0,-100.00,NW,306,30.0,37.0,31,0.00,,,-99.99,,2013-01-18 10:42:00,
2013-01-18 10:52:00,30.0,3.0,-100.00,WNW,302,28.0,37.0,32,0.00,,,-99.99,,2013-01-18 10:52:00,
2013-01-18 22:12:00,32.0,32.0,-100.00,North,0,0.0,0.0,0,0.00,,,-99.99,,2013-01-18 22:12:00,
2013-01-18 22:22:00,40.0,7.0,-100.00,WNW,296,32.0,42.0,25,0.00,,,-99.99,,2013-01-18 22:22:00,
2013-01-18 22:32:00,40.0,8.0,-100.00,WNW,291,35.0,42.0,26,0.00,,,-99.99,,2013-01-18 22:32:00,
2013-01-18 22:42:00,39.0,8.0,-100.00,WNW,287,28.0,34.0,27,0.00,,,-99.99,,2013-01-18 22:42:00,
2013-01-18 22:52:00,39.0,8.0,-100.00,WNW,295,30.0,36.0,27,0.00,,,-99.99,,2013-01-18 22:52:00,
2013-01-18 23:03:00,39.0,7.0,-100.00,WNW,298,32.0,40.0,26,0.00,,,-99.99,,2013-01-18 23:03:00,
2013-01-18 23:12:00,38.0,7.0,-100.00,WNW,302,28.0,33.0,27,0.00,,,-99.99,,2013-01-18 23:12:00,
2013-01-18 23:22:00,38.0,7.0,-100.00,WNW,296,27.0,34.0,27,0.00,,,-99.99,,2013-01-18 23:22:00,
2013-01-18 23:33:00,38.0,8.0,-100.00,WNW,294,29.0,37.0,28,0.00,,,-99.99,,2013-01-18 23:33:00,
2013-01-18 23:42:00,37.0,7.0,-100.00,WNW,295,30.0,39.0,28,0.00,,,-99.99,,2013-01-18 23:42:00,
2013-01-18 23:52:00,37.0,7.0,-100.00,WNW,292,27.0,34.0,29,0.00,,,-99.99,,2013-01-18 23:52:00,